sensor_id;sensor_type;location;lat;lon;timestamp;P1;durP1;ratioP1;P2;durP2;ratioP2
2474;SDS011;1248;48.694;10.160;2023-07-13T00:01:40;4.83;;;4.17;;
2474;SDS011;1248;48.694;10.160;2023-07-13T00:04:18;11.20;;;5.47;;
2474;SDS011;1248;48.694;10.160;2023-07-13T00:06:51;4.60;;;4.00;;
2474;SDS011;1248;48.694;10.160;2023-07-13T00:09:23;10.97;;;4.57;;
2474;SDS011;1248;48.694;10.160;2023-07-13T00:11:58;10.90;;;5.13;;
2474;SDS011;1248;48.694;10.160;2023-07-13T00:14:31;9.93;;;5.03;;
2474;SDS011;1248;48.694;10.160;2023-07-13T00:17:01;9.30;;;7.30;;
2474;SDS011;1248;48.694;10.160;2023-07-13T00:19:28;10.67;;;9.57;;
2474;SDS011;1248;48.694;10.160;2023-07-13T00:21:55;15.50;;;10.33;;
2474;SDS011;1248;48.694;10.160;2023-07-13T00:24:22;15.87;;;9.00;;
2474;SDS011;1248;48.694;10.160;2023-07-13T00:26:50;12.63;;;7.63;;
2474;SDS011;1248;48.694;10.160;2023-07-13T00:29:17;10.70;;;7.60;;
2474;SDS011;1248;48.694;10.160;2023-07-13T00:31:44;11.27;;;7.93;;
2474;SDS011;1248;48.694;10.160;2023-07-13T00:34:13;11.33;;;8.03;;
2474;SDS011;1248;48.694;10.160;2023-07-13T00:36:40;12.47;;;6.67;;
2474;SDS011;1248;48.694;10.160;2023-07-13T00:39:07;13.03;;;6.50;;
2474;SDS011;1248;48.694;10.160;2023-07-13T00:41:34;13.20;;;6.70;;
2474;SDS011;1248;48.694;10.160;2023-07-13T00:44:02;10.37;;;5.93;;
2474;SDS011;1248;48.694;10.160;2023-07-13T00:46:30;13.60;;;6.90;;
2474;SDS011;1248;48.694;10.160;2023-07-13T00:48:59;11.07;;;5.40;;
2474;SDS011;1248;48.694;10.160;2023-07-13T00:51:32;7.53;;;4.63;;
2474;SDS011;1248;48.694;10.160;2023-07-13T00:54:03;9.00;;;5.90;;
2474;SDS011;1248;48.694;10.160;2023-07-13T00:56:32;7.80;;;4.20;;
2474;SDS011;1248;48.694;10.160;2023-07-13T00:58:59;9.20;;;4.33;;
2474;SDS011;1248;48.694;10.160;2023-07-13T01:01:27;5.13;;;3.67;;
2474;SDS011;1248;48.694;10.160;2023-07-13T01:03:54;6.67;;;3.80;;
2474;SDS011;1248;48.694;10.160;2023-07-13T01:06:22;10.90;;;4.30;;
2474;SDS011;1248;48.694;10.160;2023-07-13T01:08:51;7.70;;;3.50;;
2474;SDS011;1248;48.694;10.160;2023-07-13T01:11:18;10.70;;;4.10;;
2474;SDS011;1248;48.694;10.160;2023-07-13T01:13:47;5.33;;;4.30;;
2474;SDS011;1248;48.694;10.160;2023-07-13T01:16:15;6.40;;;3.83;;
2474;SDS011;1248;48.694;10.160;2023-07-13T01:18:46;9.70;;;4.50;;
2474;SDS011;1248;48.694;10.160;2023-07-13T01:21:15;8.00;;;3.90;;
2474;SDS011;1248;48.694;10.160;2023-07-13T01:23:42;12.87;;;4.50;;
2474;SDS011;1248;48.694;10.160;2023-07-13T01:26:10;6.60;;;4.53;;
2474;SDS011;1248;48.694;10.160;2023-07-13T01:28:37;14.40;;;4.00;;
2474;SDS011;1248;48.694;10.160;2023-07-13T01:31:04;9.83;;;3.87;;
2474;SDS011;1248;48.694;10.160;2023-07-13T01:33:31;6.93;;;3.40;;
2474;SDS011;1248;48.694;10.160;2023-07-13T01:36:00;11.03;;;3.90;;
2474;SDS011;1248;48.694;10.160;2023-07-13T01:38:29;8.67;;;4.07;;
2474;SDS011;1248;48.694;10.160;2023-07-13T01:40:56;5.40;;;3.40;;
2474;SDS011;1248;48.694;10.160;2023-07-13T01:43:23;8.97;;;3.57;;
2474;SDS011;1248;48.694;10.160;2023-07-13T01:45:50;5.70;;;3.50;;
2474;SDS011;1248;48.694;10.160;2023-07-13T01:48:17;8.87;;;3.83;;
2474;SDS011;1248;48.694;10.160;2023-07-13T01:50:44;7.03;;;3.87;;
2474;SDS011;1248;48.694;10.160;2023-07-13T01:53:11;9.53;;;3.73;;
2474;SDS011;1248;48.694;10.160;2023-07-13T01:55:41;4.70;;;3.30;;
2474;SDS011;1248;48.694;10.160;2023-07-13T01:58:08;5.33;;;4.20;;
2474;SDS011;1248;48.694;10.160;2023-07-13T02:00:35;14.97;;;3.60;;
2474;SDS011;1248;48.694;10.160;2023-07-13T02:03:02;9.47;;;3.90;;
2474;SDS011;1248;48.694;10.160;2023-07-13T02:05:29;8.33;;;3.67;;
2474;SDS011;1248;48.694;10.160;2023-07-13T02:07:56;3.77;;;2.70;;
2474;SDS011;1248;48.694;10.160;2023-07-13T02:10:24;11.77;;;4.10;;
2474;SDS011;1248;48.694;10.160;2023-07-13T02:12:53;4.40;;;3.23;;
2474;SDS011;1248;48.694;10.160;2023-07-13T02:18:48;7.83;;;3.53;;
2474;SDS011;1248;48.694;10.160;2023-07-13T02:21:17;4.63;;;2.90;;
2474;SDS011;1248;48.694;10.160;2023-07-13T02:23:44;4.63;;;2.30;;
2474;SDS011;1248;48.694;10.160;2023-07-13T02:26:11;3.93;;;2.60;;
2474;SDS011;1248;48.694;10.160;2023-07-13T02:28:40;4.33;;;2.70;;
2474;SDS011;1248;48.694;10.160;2023-07-13T02:31:08;3.03;;;1.93;;
2474;SDS011;1248;48.694;10.160;2023-07-13T02:33:36;4.80;;;2.30;;
2474;SDS011;1248;48.694;10.160;2023-07-13T02:36:03;2.40;;;2.00;;
2474;SDS011;1248;48.694;10.160;2023-07-13T02:38:31;7.37;;;3.03;;
2474;SDS011;1248;48.694;10.160;2023-07-13T02:40:59;2.53;;;1.87;;
2474;SDS011;1248;48.694;10.160;2023-07-13T02:43:27;2.27;;;1.40;;
2474;SDS011;1248;48.694;10.160;2023-07-13T02:45:55;8.27;;;1.80;;
2474;SDS011;1248;48.694;10.160;2023-07-13T02:48:26;3.90;;;2.20;;
2474;SDS011;1248;48.694;10.160;2023-07-13T02:50:53;3.97;;;2.50;;
2474;SDS011;1248;48.694;10.160;2023-07-13T02:53:20;4.63;;;1.80;;
2474;SDS011;1248;48.694;10.160;2023-07-13T02:55:47;3.20;;;2.33;;
2474;SDS011;1248;48.694;10.160;2023-07-13T02:58:14;3.70;;;2.50;;
2474;SDS011;1248;48.694;10.160;2023-07-13T03:00:42;3.63;;;2.40;;
2474;SDS011;1248;48.694;10.160;2023-07-13T03:03:11;4.80;;;2.10;;
2474;SDS011;1248;48.694;10.160;2023-07-13T03:05:40;3.93;;;1.77;;
2474;SDS011;1248;48.694;10.160;2023-07-13T03:08:10;7.33;;;2.40;;
2474;SDS011;1248;48.694;10.160;2023-07-13T03:10:37;5.80;;;2.17;;
2474;SDS011;1248;48.694;10.160;2023-07-13T03:13:05;5.00;;;2.23;;
2474;SDS011;1248;48.694;10.160;2023-07-13T03:15:32;6.20;;;2.43;;
2474;SDS011;1248;48.694;10.160;2023-07-13T03:17:59;4.13;;;2.67;;
2474;SDS011;1248;48.694;10.160;2023-07-13T03:20:27;5.10;;;2.20;;
2474;SDS011;1248;48.694;10.160;2023-07-13T03:22:55;4.20;;;2.20;;
2474;SDS011;1248;48.694;10.160;2023-07-13T03:25:22;3.10;;;2.50;;
2474;SDS011;1248;48.694;10.160;2023-07-13T03:27:49;3.37;;;2.10;;
2474;SDS011;1248;48.694;10.160;2023-07-13T03:30:16;3.40;;;2.20;;
2474;SDS011;1248;48.694;10.160;2023-07-13T03:32:43;9.97;;;2.07;;
2474;SDS011;1248;48.694;10.160;2023-07-13T03:35:10;4.80;;;3.00;;
2474;SDS011;1248;48.694;10.160;2023-07-13T03:37:38;10.40;;;2.77;;
2474;SDS011;1248;48.694;10.160;2023-07-13T03:40:08;2.67;;;2.37;;
2474;SDS011;1248;48.694;10.160;2023-07-13T03:42:35;5.13;;;2.97;;
2474;SDS011;1248;48.694;10.160;2023-07-13T03:45:03;6.73;;;2.83;;
2474;SDS011;1248;48.694;10.160;2023-07-13T03:47:30;12.27;;;3.17;;
2474;SDS011;1248;48.694;10.160;2023-07-13T03:49:57;6.90;;;2.93;;
2474;SDS011;1248;48.694;10.160;2023-07-13T03:52:24;6.03;;;2.80;;
2474;SDS011;1248;48.694;10.160;2023-07-13T03:54:53;6.17;;;2.50;;
2474;SDS011;1248;48.694;10.160;2023-07-13T03:57:20;6.50;;;2.93;;
2474;SDS011;1248;48.694;10.160;2023-07-13T03:59:47;3.40;;;3.07;;
2474;SDS011;1248;48.694;10.160;2023-07-13T04:02:14;3.77;;;3.23;;
2474;SDS011;1248;48.694;10.160;2023-07-13T04:04:41;6.40;;;3.33;;
2474;SDS011;1248;48.694;10.160;2023-07-13T04:07:08;4.03;;;2.53;;
2474;SDS011;1248;48.694;10.160;2023-07-13T04:09:35;5.83;;;3.20;;
2474;SDS011;1248;48.694;10.160;2023-07-13T04:12:04;7.90;;;3.70;;
2474;SDS011;1248;48.694;10.160;2023-07-13T04:14:32;8.50;;;2.93;;
2474;SDS011;1248;48.694;10.160;2023-07-13T04:16:59;7.20;;;3.17;;
2474;SDS011;1248;48.694;10.160;2023-07-13T04:19:26;3.90;;;3.00;;
2474;SDS011;1248;48.694;10.160;2023-07-13T04:21:53;3.90;;;2.87;;
2474;SDS011;1248;48.694;10.160;2023-07-13T04:24:20;7.00;;;3.37;;
2474;SDS011;1248;48.694;10.160;2023-07-13T04:26:47;8.00;;;3.50;;
2474;SDS011;1248;48.694;10.160;2023-07-13T04:29:16;16.30;;;4.70;;
2474;SDS011;1248;48.694;10.160;2023-07-13T04:31:43;8.13;;;4.73;;
2474;SDS011;1248;48.694;10.160;2023-07-13T04:34:10;19.97;;;8.10;;
2474;SDS011;1248;48.694;10.160;2023-07-13T04:36:37;13.67;;;6.40;;
2474;SDS011;1248;48.694;10.160;2023-07-13T04:39:04;8.57;;;4.90;;
2474;SDS011;1248;48.694;10.160;2023-07-13T04:41:32;7.33;;;4.20;;
2474;SDS011;1248;48.694;10.160;2023-07-13T04:43:59;5.43;;;3.00;;
2474;SDS011;1248;48.694;10.160;2023-07-13T04:46:29;13.87;;;3.23;;
2474;SDS011;1248;48.694;10.160;2023-07-13T04:48:56;7.07;;;3.53;;
2474;SDS011;1248;48.694;10.160;2023-07-13T04:51:24;9.20;;;3.00;;
2474;SDS011;1248;48.694;10.160;2023-07-13T04:53:52;8.60;;;2.93;;
2474;SDS011;1248;48.694;10.160;2023-07-13T04:56:19;16.73;;;3.67;;
2474;SDS011;1248;48.694;10.160;2023-07-13T04:58:46;4.10;;;3.27;;
2474;SDS011;1248;48.694;10.160;2023-07-13T05:01:13;11.93;;;3.40;;
2474;SDS011;1248;48.694;10.160;2023-07-13T05:03:41;5.80;;;3.20;;
2474;SDS011;1248;48.694;10.160;2023-07-13T05:06:09;8.57;;;3.70;;
2474;SDS011;1248;48.694;10.160;2023-07-13T05:08:36;6.57;;;3.93;;
2474;SDS011;1248;48.694;10.160;2023-07-13T05:11:03;5.93;;;3.63;;
2474;SDS011;1248;48.694;10.160;2023-07-13T05:13:31;8.87;;;4.63;;
2474;SDS011;1248;48.694;10.160;2023-07-13T05:15:58;8.47;;;4.20;;
2474;SDS011;1248;48.694;10.160;2023-07-13T05:18:26;5.17;;;3.80;;
2474;SDS011;1248;48.694;10.160;2023-07-13T05:20:59;9.10;;;4.07;;
2474;SDS011;1248;48.694;10.160;2023-07-13T05:23:28;3.30;;;2.77;;
2474;SDS011;1248;48.694;10.160;2023-07-13T05:25:55;7.00;;;3.40;;
2474;SDS011;1248;48.694;10.160;2023-07-13T05:28:22;8.10;;;3.33;;
2474;SDS011;1248;48.694;10.160;2023-07-13T05:30:49;5.73;;;2.60;;
2474;SDS011;1248;48.694;10.160;2023-07-13T05:33:17;7.40;;;3.17;;
2474;SDS011;1248;48.694;10.160;2023-07-13T05:35:44;6.93;;;2.97;;
2474;SDS011;1248;48.694;10.160;2023-07-13T05:38:12;8.40;;;2.70;;
2474;SDS011;1248;48.694;10.160;2023-07-13T05:40:41;5.23;;;2.93;;
2474;SDS011;1248;48.694;10.160;2023-07-13T05:43:09;7.10;;;2.53;;
2474;SDS011;1248;48.694;10.160;2023-07-13T05:45:36;4.70;;;2.70;;
2474;SDS011;1248;48.694;10.160;2023-07-13T05:48:03;8.63;;;2.60;;
2474;SDS011;1248;48.694;10.160;2023-07-13T05:50:30;4.27;;;3.60;;
2474;SDS011;1248;48.694;10.160;2023-07-13T05:52:57;7.40;;;3.47;;
2474;SDS011;1248;48.694;10.160;2023-07-13T05:55:26;4.40;;;2.80;;
2474;SDS011;1248;48.694;10.160;2023-07-13T05:57:53;4.60;;;2.63;;
2474;SDS011;1248;48.694;10.160;2023-07-13T06:00:20;5.73;;;3.17;;
2474;SDS011;1248;48.694;10.160;2023-07-13T06:02:47;4.93;;;2.73;;
2474;SDS011;1248;48.694;10.160;2023-07-13T06:05:14;7.40;;;3.10;;
2474;SDS011;1248;48.694;10.160;2023-07-13T06:07:41;4.67;;;2.50;;
2474;SDS011;1248;48.694;10.160;2023-07-13T06:10:08;4.70;;;2.87;;
2474;SDS011;1248;48.694;10.160;2023-07-13T06:12:37;3.00;;;2.43;;
2474;SDS011;1248;48.694;10.160;2023-07-13T06:15:05;3.50;;;2.53;;
2474;SDS011;1248;48.694;10.160;2023-07-13T06:17:33;6.30;;;2.60;;
2474;SDS011;1248;48.694;10.160;2023-07-13T06:20:00;10.43;;;3.43;;
2474;SDS011;1248;48.694;10.160;2023-07-13T06:22:27;7.90;;;3.90;;
2474;SDS011;1248;48.694;10.160;2023-07-13T06:24:54;6.53;;;2.90;;
2474;SDS011;1248;48.694;10.160;2023-07-13T06:27:21;4.87;;;2.77;;
2474;SDS011;1248;48.694;10.160;2023-07-13T06:29:50;4.77;;;2.30;;
2474;SDS011;1248;48.694;10.160;2023-07-13T06:32:17;7.57;;;2.97;;
2474;SDS011;1248;48.694;10.160;2023-07-13T06:34:44;3.70;;;2.27;;
2474;SDS011;1248;48.694;10.160;2023-07-13T06:37:11;6.50;;;4.50;;
2474;SDS011;1248;48.694;10.160;2023-07-13T06:39:38;7.20;;;2.70;;
2474;SDS011;1248;48.694;10.160;2023-07-13T06:42:05;7.30;;;3.33;;
2474;SDS011;1248;48.694;10.160;2023-07-13T06:44:33;4.00;;;2.77;;
2474;SDS011;1248;48.694;10.160;2023-07-13T06:47:01;10.37;;;2.60;;
2474;SDS011;1248;48.694;10.160;2023-07-13T06:49:28;4.07;;;2.50;;
2474;SDS011;1248;48.694;10.160;2023-07-13T06:51:55;5.27;;;2.67;;
2474;SDS011;1248;48.694;10.160;2023-07-13T06:54:22;3.40;;;2.30;;
2474;SDS011;1248;48.694;10.160;2023-07-13T06:56:50;3.30;;;2.40;;
2474;SDS011;1248;48.694;10.160;2023-07-13T06:59:18;4.90;;;2.60;;
2474;SDS011;1248;48.694;10.160;2023-07-13T07:01:45;6.50;;;2.27;;
2474;SDS011;1248;48.694;10.160;2023-07-13T07:04:13;2.53;;;2.33;;
2474;SDS011;1248;48.694;10.160;2023-07-13T07:06:40;7.43;;;2.50;;
2474;SDS011;1248;48.694;10.160;2023-07-13T07:09:07;4.50;;;1.73;;
2474;SDS011;1248;48.694;10.160;2023-07-13T07:11:34;6.20;;;2.40;;
2474;SDS011;1248;48.694;10.160;2023-07-13T07:14:01;2.77;;;2.00;;
2474;SDS011;1248;48.694;10.160;2023-07-13T07:16:29;3.90;;;2.27;;
2474;SDS011;1248;48.694;10.160;2023-07-13T07:18:56;4.40;;;2.20;;
2474;SDS011;1248;48.694;10.160;2023-07-13T07:21:24;5.43;;;2.37;;
2474;SDS011;1248;48.694;10.160;2023-07-13T07:23:52;4.50;;;2.20;;
2474;SDS011;1248;48.694;10.160;2023-07-13T07:26:20;2.27;;;1.70;;
2474;SDS011;1248;48.694;10.160;2023-07-13T07:28:46;4.93;;;2.50;;
2474;SDS011;1248;48.694;10.160;2023-07-13T07:31:13;5.73;;;2.03;;
2474;SDS011;1248;48.694;10.160;2023-07-13T07:33:40;2.83;;;1.80;;
2474;SDS011;1248;48.694;10.160;2023-07-13T07:36:08;4.30;;;1.30;;
2474;SDS011;1248;48.694;10.160;2023-07-13T07:38:37;3.47;;;1.70;;
2474;SDS011;1248;48.694;10.160;2023-07-13T07:41:04;3.33;;;1.40;;
2474;SDS011;1248;48.694;10.160;2023-07-13T07:43:31;4.00;;;1.77;;
2474;SDS011;1248;48.694;10.160;2023-07-13T07:45:58;2.20;;;1.33;;
2474;SDS011;1248;48.694;10.160;2023-07-13T07:48:25;3.30;;;1.50;;
2474;SDS011;1248;48.694;10.160;2023-07-13T07:50:52;1.53;;;1.23;;
2474;SDS011;1248;48.694;10.160;2023-07-13T07:53:19;4.07;;;1.50;;
2474;SDS011;1248;48.694;10.160;2023-07-13T07:55:48;4.93;;;1.40;;
2474;SDS011;1248;48.694;10.160;2023-07-13T07:58:15;3.00;;;1.30;;
2474;SDS011;1248;48.694;10.160;2023-07-13T08:00:42;2.80;;;1.57;;
2474;SDS011;1248;48.694;10.160;2023-07-13T08:03:09;7.80;;;1.77;;
2474;SDS011;1248;48.694;10.160;2023-07-13T08:05:36;1.70;;;1.30;;
2474;SDS011;1248;48.694;10.160;2023-07-13T08:08:03;3.30;;;1.53;;
2474;SDS011;1248;48.694;10.160;2023-07-13T08:10:30;1.70;;;1.10;;
2474;SDS011;1248;48.694;10.160;2023-07-13T08:12:59;2.43;;;1.43;;
2474;SDS011;1248;48.694;10.160;2023-07-13T08:15:26;4.30;;;1.50;;
2474;SDS011;1248;48.694;10.160;2023-07-13T08:17:53;5.70;;;1.30;;
2474;SDS011;1248;48.694;10.160;2023-07-13T08:20:20;2.80;;;1.40;;
2474;SDS011;1248;48.694;10.160;2023-07-13T08:22:47;1.60;;;1.10;;
2474;SDS011;1248;48.694;10.160;2023-07-13T08:25:14;3.63;;;1.73;;
2474;SDS011;1248;48.694;10.160;2023-07-13T08:27:41;2.73;;;1.27;;
2474;SDS011;1248;48.694;10.160;2023-07-13T08:30:10;2.60;;;1.20;;
2474;SDS011;1248;48.694;10.160;2023-07-13T08:32:37;5.70;;;1.40;;
2474;SDS011;1248;48.694;10.160;2023-07-13T08:35:04;5.03;;;1.27;;
2474;SDS011;1248;48.694;10.160;2023-07-13T08:37:32;2.73;;;1.40;;
2474;SDS011;1248;48.694;10.160;2023-07-13T08:39:59;3.10;;;1.30;;
2474;SDS011;1248;48.694;10.160;2023-07-13T08:42:31;2.40;;;1.40;;
2474;SDS011;1248;48.694;10.160;2023-07-13T08:45:04;5.60;;;1.40;;
2474;SDS011;1248;48.694;10.160;2023-07-13T08:47:38;5.30;;;1.20;;
2474;SDS011;1248;48.694;10.160;2023-07-13T08:50:10;7.20;;;1.80;;
2474;SDS011;1248;48.694;10.160;2023-07-13T08:52:39;2.20;;;1.67;;
2474;SDS011;1248;48.694;10.160;2023-07-13T08:55:12;1.47;;;1.30;;
2474;SDS011;1248;48.694;10.160;2023-07-13T08:57:40;1.87;;;1.17;;
2474;SDS011;1248;48.694;10.160;2023-07-13T09:00:09;7.33;;;2.17;;
2474;SDS011;1248;48.694;10.160;2023-07-13T09:02:41;4.67;;;1.60;;
2474;SDS011;1248;48.694;10.160;2023-07-13T09:05:10;2.70;;;1.67;;
2474;SDS011;1248;48.694;10.160;2023-07-13T09:07:41;2.90;;;1.83;;
2474;SDS011;1248;48.694;10.160;2023-07-13T09:10:28;3.00;;;1.63;;
2474;SDS011;1248;48.694;10.160;2023-07-13T09:13:02;4.10;;;1.90;;
2474;SDS011;1248;48.694;10.160;2023-07-13T09:15:38;6.20;;;1.60;;
2474;SDS011;1248;48.694;10.160;2023-07-13T09:18:10;9.77;;;2.00;;
2474;SDS011;1248;48.694;10.160;2023-07-13T09:20:46;4.53;;;1.60;;
2474;SDS011;1248;48.694;10.160;2023-07-13T09:23:16;2.80;;;1.50;;
2474;SDS011;1248;48.694;10.160;2023-07-13T09:25:47;4.77;;;1.90;;
2474;SDS011;1248;48.694;10.160;2023-07-13T09:28:17;3.97;;;1.93;;
2474;SDS011;1248;48.694;10.160;2023-07-13T09:30:50;5.10;;;1.70;;
2474;SDS011;1248;48.694;10.160;2023-07-13T09:33:20;5.37;;;1.70;;
2474;SDS011;1248;48.694;10.160;2023-07-13T09:35:48;1.97;;;1.87;;
2474;SDS011;1248;48.694;10.160;2023-07-13T09:38:16;3.33;;;1.53;;
2474;SDS011;1248;48.694;10.160;2023-07-13T09:40:48;1.60;;;1.40;;
2474;SDS011;1248;48.694;10.160;2023-07-13T09:43:21;3.83;;;1.53;;
2474;SDS011;1248;48.694;10.160;2023-07-13T09:45:48;2.60;;;2.10;;
2474;SDS011;1248;48.694;10.160;2023-07-13T09:48:15;8.13;;;2.60;;
2474;SDS011;1248;48.694;10.160;2023-07-13T09:50:45;2.87;;;1.90;;
2474;SDS011;1248;48.694;10.160;2023-07-13T09:53:12;24.43;;;11.63;;
2474;SDS011;1248;48.694;10.160;2023-07-13T09:55:40;3.23;;;2.60;;
2474;SDS011;1248;48.694;10.160;2023-07-13T09:58:09;2.50;;;1.67;;
2474;SDS011;1248;48.694;10.160;2023-07-13T10:00:38;3.70;;;1.90;;
2474;SDS011;1248;48.694;10.160;2023-07-13T10:03:14;2.07;;;1.30;;
2474;SDS011;1248;48.694;10.160;2023-07-13T10:05:45;5.70;;;2.13;;
2474;SDS011;1248;48.694;10.160;2023-07-13T10:08:17;4.10;;;2.20;;
2474;SDS011;1248;48.694;10.160;2023-07-13T10:10:46;5.20;;;1.90;;
2474;SDS011;1248;48.694;10.160;2023-07-13T10:13:24;2.03;;;1.60;;
2474;SDS011;1248;48.694;10.160;2023-07-13T10:15:54;3.67;;;1.80;;
2474;SDS011;1248;48.694;10.160;2023-07-13T10:18:22;5.30;;;1.97;;
2474;SDS011;1248;48.694;10.160;2023-07-13T10:20:52;3.70;;;1.30;;
2474;SDS011;1248;48.694;10.160;2023-07-13T10:23:21;3.57;;;1.50;;
2474;SDS011;1248;48.694;10.160;2023-07-13T10:25:50;2.53;;;1.60;;
2474;SDS011;1248;48.694;10.160;2023-07-13T10:28:21;3.00;;;1.60;;
2474;SDS011;1248;48.694;10.160;2023-07-13T10:30:52;3.97;;;1.80;;
2474;SDS011;1248;48.694;10.160;2023-07-13T10:33:20;3.95;;;1.77;;
2474;SDS011;1248;48.694;10.160;2023-07-13T10:35:48;3.80;;;1.70;;
2474;SDS011;1248;48.694;10.160;2023-07-13T10:38:20;4.70;;;1.57;;
2474;SDS011;1248;48.694;10.160;2023-07-13T10:40:52;3.77;;;1.60;;
2474;SDS011;1248;48.694;10.160;2023-07-13T10:43:25;2.63;;;1.77;;
2474;SDS011;1248;48.694;10.160;2023-07-13T10:45:54;2.30;;;1.30;;
2474;SDS011;1248;48.694;10.160;2023-07-13T10:48:21;5.17;;;1.27;;
2474;SDS011;1248;48.694;10.160;2023-07-13T10:50:51;2.13;;;1.47;;
2474;SDS011;1248;48.694;10.160;2023-07-13T10:53:20;2.57;;;1.60;;
2474;SDS011;1248;48.694;10.160;2023-07-13T10:55:55;2.47;;;1.87;;
2474;SDS011;1248;48.694;10.160;2023-07-13T10:58:31;5.30;;;1.60;;
2474;SDS011;1248;48.694;10.160;2023-07-13T11:01:03;3.93;;;1.70;;
2474;SDS011;1248;48.694;10.160;2023-07-13T11:03:34;6.50;;;1.43;;
2474;SDS011;1248;48.694;10.160;2023-07-13T11:06:11;1.70;;;1.30;;
2474;SDS011;1248;48.694;10.160;2023-07-13T11:08:51;6.77;;;2.63;;
2474;SDS011;1248;48.694;10.160;2023-07-13T11:11:32;4.70;;;1.50;;
2474;SDS011;1248;48.694;10.160;2023-07-13T11:14:01;2.30;;;1.70;;
2474;SDS011;1248;48.694;10.160;2023-07-13T11:16:37;3.00;;;1.43;;
2474;SDS011;1248;48.694;10.160;2023-07-13T11:19:24;4.43;;;1.60;;
2474;SDS011;1248;48.694;10.160;2023-07-13T11:22:16;2.70;;;1.30;;
2474;SDS011;1248;48.694;10.160;2023-07-13T11:24:59;5.60;;;1.53;;
2474;SDS011;1248;48.694;10.160;2023-07-13T11:27:35;5.80;;;1.67;;
2474;SDS011;1248;48.694;10.160;2023-07-13T11:30:08;3.87;;;1.73;;
2474;SDS011;1248;48.694;10.160;2023-07-13T11:32:49;3.93;;;2.17;;
2474;SDS011;1248;48.694;10.160;2023-07-13T11:35:19;2.37;;;1.50;;
2474;SDS011;1248;48.694;10.160;2023-07-13T11:37:50;3.80;;;1.73;;
2474;SDS011;1248;48.694;10.160;2023-07-13T11:40:17;1.93;;;1.47;;
2474;SDS011;1248;48.694;10.160;2023-07-13T11:42:45;3.93;;;1.80;;
2474;SDS011;1248;48.694;10.160;2023-07-13T11:45:18;5.83;;;1.80;;
2474;SDS011;1248;48.694;10.160;2023-07-13T11:47:48;3.43;;;1.30;;
2474;SDS011;1248;48.694;10.160;2023-07-13T11:50:19;3.40;;;1.73;;
2474;SDS011;1248;48.694;10.160;2023-07-13T11:52:48;3.30;;;1.90;;
2474;SDS011;1248;48.694;10.160;2023-07-13T11:55:20;2.80;;;1.43;;
2474;SDS011;1248;48.694;10.160;2023-07-13T11:57:50;6.40;;;1.30;;
2474;SDS011;1248;48.694;10.160;2023-07-13T12:00:21;3.10;;;1.37;;
2474;SDS011;1248;48.694;10.160;2023-07-13T12:02:50;4.23;;;1.60;;
2474;SDS011;1248;48.694;10.160;2023-07-13T12:05:18;3.87;;;1.80;;
2474;SDS011;1248;48.694;10.160;2023-07-13T12:07:46;4.70;;;1.67;;
2474;SDS011;1248;48.694;10.160;2023-07-13T12:10:18;3.27;;;1.30;;
2474;SDS011;1248;48.694;10.160;2023-07-13T12:12:47;5.13;;;1.37;;
2474;SDS011;1248;48.694;10.160;2023-07-13T12:15:15;2.33;;;1.50;;
2474;SDS011;1248;48.694;10.160;2023-07-13T12:17:42;2.77;;;1.33;;
2474;SDS011;1248;48.694;10.160;2023-07-13T12:20:17;6.40;;;1.97;;
2474;SDS011;1248;48.694;10.160;2023-07-13T12:22:47;1.97;;;1.50;;
2474;SDS011;1248;48.694;10.160;2023-07-13T12:25:14;5.37;;;1.73;;
2474;SDS011;1248;48.694;10.160;2023-07-13T12:27:47;4.00;;;1.70;;
2474;SDS011;1248;48.694;10.160;2023-07-13T12:30:21;4.30;;;1.73;;
2474;SDS011;1248;48.694;10.160;2023-07-13T12:33:01;5.30;;;2.10;;
2474;SDS011;1248;48.694;10.160;2023-07-13T12:35:39;5.07;;;3.47;;
2474;SDS011;1248;48.694;10.160;2023-07-13T12:38:07;2.60;;;2.10;;
2474;SDS011;1248;48.694;10.160;2023-07-13T12:40:36;10.97;;;3.80;;
2474;SDS011;1248;48.694;10.160;2023-07-13T12:43:04;9.97;;;3.73;;
2474;SDS011;1248;48.694;10.160;2023-07-13T12:45:32;5.60;;;1.67;;
2474;SDS011;1248;48.694;10.160;2023-07-13T12:48:03;3.60;;;1.80;;
2474;SDS011;1248;48.694;10.160;2023-07-13T12:50:36;1.43;;;1.30;;
2474;SDS011;1248;48.694;10.160;2023-07-13T12:53:05;3.50;;;1.87;;
2474;SDS011;1248;48.694;10.160;2023-07-13T12:55:40;3.60;;;1.80;;
2474;SDS011;1248;48.694;10.160;2023-07-13T12:58:13;2.73;;;1.60;;
2474;SDS011;1248;48.694;10.160;2023-07-13T13:00:47;3.87;;;1.57;;
2474;SDS011;1248;48.694;10.160;2023-07-13T13:03:21;2.33;;;1.60;;
2474;SDS011;1248;48.694;10.160;2023-07-13T13:05:56;3.63;;;1.87;;
2474;SDS011;1248;48.694;10.160;2023-07-13T13:08:29;2.23;;;1.37;;
2474;SDS011;1248;48.694;10.160;2023-07-13T13:10:56;2.63;;;1.30;;
2474;SDS011;1248;48.694;10.160;2023-07-13T13:13:24;3.20;;;1.70;;
2474;SDS011;1248;48.694;10.160;2023-07-13T13:15:52;3.80;;;2.03;;
2474;SDS011;1248;48.694;10.160;2023-07-13T13:18:20;5.10;;;1.30;;
2474;SDS011;1248;48.694;10.160;2023-07-13T13:20:48;4.33;;;1.43;;
2474;SDS011;1248;48.694;10.160;2023-07-13T13:23:16;6.10;;;1.63;;
2474;SDS011;1248;48.694;10.160;2023-07-13T13:25:45;6.43;;;2.20;;
2474;SDS011;1248;48.694;10.160;2023-07-13T13:28:14;2.60;;;1.40;;
2474;SDS011;1248;48.694;10.160;2023-07-13T13:30:44;3.43;;;1.60;;
2474;SDS011;1248;48.694;10.160;2023-07-13T13:33:13;2.10;;;1.67;;
2474;SDS011;1248;48.694;10.160;2023-07-13T13:35:41;2.67;;;1.50;;
2474;SDS011;1248;48.694;10.160;2023-07-13T13:38:09;3.03;;;1.50;;
2474;SDS011;1248;48.694;10.160;2023-07-13T13:40:39;4.23;;;1.80;;
2474;SDS011;1248;48.694;10.160;2023-07-13T13:43:16;7.17;;;1.60;;
2474;SDS011;1248;48.694;10.160;2023-07-13T13:45:45;4.30;;;1.40;;
2474;SDS011;1248;48.694;10.160;2023-07-13T13:48:16;3.90;;;1.67;;
2474;SDS011;1248;48.694;10.160;2023-07-13T13:50:44;7.47;;;1.90;;
2474;SDS011;1248;48.694;10.160;2023-07-13T13:53:12;3.47;;;1.80;;
2474;SDS011;1248;48.694;10.160;2023-07-13T13:55:39;4.60;;;1.57;;
2474;SDS011;1248;48.694;10.160;2023-07-13T13:58:07;11.03;;;1.93;;
2474;SDS011;1248;48.694;10.160;2023-07-13T14:00:35;6.60;;;1.50;;
2474;SDS011;1248;48.694;10.160;2023-07-13T14:03:04;2.60;;;1.30;;
2474;SDS011;1248;48.694;10.160;2023-07-13T14:05:32;3.10;;;1.80;;
2474;SDS011;1248;48.694;10.160;2023-07-13T14:08:00;2.33;;;1.93;;
2474;SDS011;1248;48.694;10.160;2023-07-13T14:10:27;4.83;;;1.80;;
2474;SDS011;1248;48.694;10.160;2023-07-13T14:12:54;2.30;;;1.40;;
2474;SDS011;1248;48.694;10.160;2023-07-13T14:15:23;3.93;;;1.70;;
2474;SDS011;1248;48.694;10.160;2023-07-13T14:17:51;12.23;;;1.77;;
2474;SDS011;1248;48.694;10.160;2023-07-13T14:20:20;2.07;;;1.53;;
2474;SDS011;1248;48.694;10.160;2023-07-13T14:22:49;4.50;;;1.40;;
2474;SDS011;1248;48.694;10.160;2023-07-13T14:25:17;2.80;;;1.47;;
2474;SDS011;1248;48.694;10.160;2023-07-13T14:27:46;2.27;;;1.50;;
2474;SDS011;1248;48.694;10.160;2023-07-13T14:30:16;7.80;;;1.93;;
2474;SDS011;1248;48.694;10.160;2023-07-13T14:32:44;4.47;;;1.80;;
2474;SDS011;1248;48.694;10.160;2023-07-13T14:35:11;8.87;;;1.80;;
2474;SDS011;1248;48.694;10.160;2023-07-13T14:37:40;6.17;;;1.43;;
2474;SDS011;1248;48.694;10.160;2023-07-13T14:40:13;2.20;;;1.47;;
2474;SDS011;1248;48.694;10.160;2023-07-13T14:42:42;3.60;;;1.67;;
2474;SDS011;1248;48.694;10.160;2023-07-13T14:45:13;3.87;;;1.50;;
2474;SDS011;1248;48.694;10.160;2023-07-13T14:47:40;2.10;;;1.40;;
2474;SDS011;1248;48.694;10.160;2023-07-13T14:50:11;2.70;;;1.57;;
2474;SDS011;1248;48.694;10.160;2023-07-13T14:52:42;3.00;;;1.93;;
2474;SDS011;1248;48.694;10.160;2023-07-13T14:55:11;2.30;;;1.57;;
2474;SDS011;1248;48.694;10.160;2023-07-13T14:57:38;3.47;;;1.87;;
2474;SDS011;1248;48.694;10.160;2023-07-13T15:00:08;2.50;;;1.40;;
2474;SDS011;1248;48.694;10.160;2023-07-13T15:02:41;7.07;;;1.67;;
2474;SDS011;1248;48.694;10.160;2023-07-13T15:05:12;4.20;;;1.80;;
2474;SDS011;1248;48.694;10.160;2023-07-13T15:07:42;5.70;;;1.53;;
2474;SDS011;1248;48.694;10.160;2023-07-13T15:10:12;2.07;;;1.20;;
2474;SDS011;1248;48.694;10.160;2023-07-13T15:12:40;2.10;;;1.57;;
2474;SDS011;1248;48.694;10.160;2023-07-13T15:15:08;3.70;;;1.80;;